createdAt,value
2018-03-20T00:00:10.667Z,0
2018-03-20T00:01:20.193Z,0
2018-03-20T00:02:29.982Z,0
2018-03-20T00:03:40.047Z,0
2018-03-20T00:04:50.121Z,0
2018-03-20T00:06:00.196Z,0
2018-03-20T00:07:09.748Z,0
2018-03-20T00:08:19.830Z,0
2018-03-20T00:09:29.886Z,0
2018-03-20T00:10:39.685Z,0
2018-03-20T00:11:49.750Z,0
2018-03-20T00:12:59.279Z,0
2018-03-20T00:14:09.084Z,0
2018-03-20T00:15:18.882Z,0
2018-03-20T00:16:28.928Z,0
2018-03-20T00:17:38.979Z,0
2018-03-20T00:18:48.506Z,0
2018-03-20T00:19:58.303Z,0
2018-03-20T00:21:08.140Z,0
2018-03-20T00:22:17.928Z,0
2018-03-20T00:23:27.730Z,0
2018-03-20T00:24:37.645Z,0
2018-03-20T00:25:47.699Z,0
2018-03-20T00:26:56.963Z,0
2018-03-20T00:28:07.044Z,0
2018-03-20T00:29:16.606Z,0
2018-03-20T00:30:26.727Z,0
2018-03-20T00:31:36.830Z,0
2018-03-20T00:32:46.112Z,0
2018-03-20T00:33:55.924Z,0
2018-03-20T00:35:05.457Z,0
2018-03-20T00:36:15.241Z,0
2018-03-20T00:37:25.029Z,0
2018-03-20T00:38:34.839Z,0
2018-03-20T00:39:44.650Z,0
2018-03-20T00:40:54.458Z,0
2018-03-20T00:42:03.984Z,0
2018-03-20T00:43:14.047Z,0
2018-03-20T00:44:23.576Z,0
2018-03-20T00:45:33.371Z,0
2018-03-20T00:46:42.661Z,0
2018-03-20T00:47:52.768Z,0
2018-03-20T00:49:02.571Z,0
2018-03-20T00:50:12.653Z,0
2018-03-20T00:51:22.454Z,0
2018-03-20T00:52:32.516Z,0
2018-03-20T00:53:42.366Z,0
2018-03-20T00:54:52.150Z,0
2018-03-20T00:56:02.194Z,0
2018-03-20T00:57:11.740Z,0
2018-03-20T00:58:21.018Z,0
2018-03-20T00:59:30.814Z,0
2018-03-20T01:00:40.613Z,0
2018-03-20T01:01:50.147Z,0
2018-03-20T01:02:59.678Z,0
2018-03-20T01:04:09.758Z,0
2018-03-20T01:05:19.607Z,0
2018-03-20T01:06:29.676Z,0
2018-03-20T01:07:39.485Z,0
2018-03-20T01:08:49.347Z,0
2018-03-20T01:09:59.413Z,0
2018-03-20T01:11:08.976Z,0
2018-03-20T01:12:18.516Z,0
2018-03-20T01:13:28.563Z,0
2018-03-20T01:14:38.673Z,0
2018-03-20T01:15:48.741Z,0
2018-03-20T01:16:58.324Z,0
2018-03-20T01:18:08.123Z,0
2018-03-20T01:19:17.912Z,0
2018-03-20T01:20:27.708Z,0
2018-03-20T01:21:37.782Z,0
2018-03-20T01:22:47.584Z,0
2018-03-20T01:23:57.642Z,0
2018-03-20T01:25:07.432Z,0
2018-03-20T01:26:17.718Z,0
2018-03-20T01:27:27.499Z,0
2018-03-20T01:28:37.576Z,0
2018-03-20T01:29:47.632Z,0
2018-03-20T01:30:57.431Z,0
2018-03-20T01:32:07.479Z,0
2018-03-20T01:33:17.524Z,0
2018-03-20T01:34:27.639Z,0
2018-03-20T01:35:37.706Z,0
2018-03-20T01:36:47.763Z,0
2018-03-20T01:37:57.824Z,0
2018-03-20T01:39:07.609Z,0
2018-03-20T01:40:17.711Z,0
2018-03-20T01:41:27.777Z,0
2018-03-20T01:42:37.578Z,0
2018-03-20T01:43:47.370Z,0
2018-03-20T01:44:57.404Z,0
2018-03-20T01:46:07.733Z,0
2018-03-20T01:47:17.789Z,0
2018-03-20T01:48:27.861Z,0
2018-03-20T01:49:37.926Z,0
2018-03-20T01:50:47.981Z,0
2018-03-20T01:51:58.091Z,0
2018-03-20T01:53:07.638Z,0
2018-03-20T01:54:17.703Z,0
2018-03-20T01:55:27.512Z,0
2018-03-20T01:56:36.784Z,0
2018-03-20T01:57:46.845Z,0
2018-03-20T01:58:56.906Z,0
2018-03-20T02:00:06.958Z,0
2018-03-20T02:01:16.479Z,0
2018-03-20T02:02:26.526Z,0
2018-03-20T02:03:36.623Z,0
2018-03-20T02:04:46.696Z,0
2018-03-20T02:05:56.499Z,0
2018-03-20T02:07:06.553Z,0
2018-03-20T02:08:16.597Z,0
2018-03-20T02:09:26.648Z,0
2018-03-20T02:10:36.699Z,0
2018-03-20T02:11:46.225Z,0
2018-03-20T02:12:56.017Z,0
2018-03-20T02:14:05.820Z,0
2018-03-20T02:15:15.922Z,0
2018-03-20T02:16:25.730Z,0
2018-03-20T02:17:35.551Z,0
2018-03-20T02:18:45.622Z,0
2018-03-20T02:19:55.676Z,0
2018-03-20T02:21:05.472Z,0
2018-03-20T02:22:15.523Z,0
2018-03-20T02:23:25.590Z,0
2018-03-20T02:24:35.372Z,0
2018-03-20T02:25:45.176Z,0
2018-03-20T02:26:55.291Z,0
2018-03-20T02:28:05.347Z,0
2018-03-20T02:29:15.491Z,0
2018-03-20T02:30:25.564Z,0
2018-03-20T02:31:35.373Z,0
2018-03-20T02:32:45.232Z,0
2018-03-20T02:33:55.339Z,0
2018-03-20T02:35:05.423Z,0
2018-03-20T02:36:14.963Z,0
2018-03-20T02:37:25.034Z,0
2018-03-20T02:38:35.137Z,0
2018-03-20T02:39:44.924Z,0
2018-03-20T02:40:54.984Z,0
2018-03-20T02:42:05.046Z,0
2018-03-20T02:43:15.089Z,0
2018-03-20T02:44:25.156Z,0
2018-03-20T02:45:35.233Z,0
2018-03-20T02:46:44.772Z,0
2018-03-20T02:47:54.827Z,0
2018-03-20T02:49:04.889Z,0
2018-03-20T02:50:14.965Z,0
2018-03-20T02:51:25.063Z,0
2018-03-20T02:52:35.149Z,0
2018-03-20T02:53:45.199Z,0
2018-03-20T02:54:54.991Z,0
2018-03-20T02:56:04.863Z,0
2018-03-20T02:57:14.927Z,0
2018-03-20T02:58:24.988Z,0
2018-03-20T02:59:35.068Z,0
2018-03-20T03:00:44.890Z,0
2018-03-20T03:01:55.040Z,0
2018-03-20T03:03:04.859Z,0
2018-03-20T03:04:14.956Z,0
2018-03-20T03:05:24.753Z,0
2018-03-20T03:06:34.571Z,0
2018-03-20T03:07:44.429Z,0
2018-03-20T03:39:32.391Z,0
2018-03-20T03:40:42.177Z,0
2018-03-20T03:41:51.944Z,0
2018-03-20T03:43:01.203Z,0
2018-03-20T03:44:10.731Z,0
2018-03-20T03:45:20.597Z,0
2018-03-20T03:46:30.643Z,0
2018-03-20T03:47:40.684Z,0
2018-03-20T03:48:50.727Z,0
2018-03-20T03:50:00.791Z,0
2018-03-20T03:51:10.845Z,0
2018-03-20T03:52:20.640Z,0
2018-03-20T03:53:30.724Z,0
2018-03-20T03:54:40.525Z,0
2018-03-20T03:55:50.588Z,0
2018-03-20T03:57:00.699Z,0
2018-03-20T03:58:10.772Z,0
2018-03-20T03:59:20.578Z,0
2018-03-20T04:00:30.630Z,0
2018-03-20T04:01:40.432Z,0
2018-03-20T04:02:50.549Z,0
2018-03-20T04:04:00.338Z,0
2018-03-20T04:05:10.131Z,0
2018-03-20T04:06:20.202Z,0
2018-03-20T04:07:30.005Z,0
2018-03-20T04:08:40.067Z,0
2018-03-20T04:09:50.130Z,0
2018-03-20T04:11:00.173Z,0
2018-03-20T04:12:09.994Z,0
2018-03-20T04:13:20.061Z,0
2018-03-20T04:14:30.118Z,0
2018-03-20T04:15:40.184Z,0
2018-03-20T04:16:50.250Z,0
2018-03-20T04:18:00.304Z,0
2018-03-20T04:19:10.364Z,0
2018-03-20T04:20:19.892Z,0
2018-03-20T04:21:29.943Z,0
2018-03-20T04:22:39.749Z,0
2018-03-20T04:23:49.800Z,0
2018-03-20T04:24:59.867Z,0
2018-03-20T04:26:09.942Z,0
2018-03-20T04:27:19.991Z,0
2018-03-20T04:28:30.070Z,0
2018-03-20T04:29:40.142Z,0
2018-03-20T04:30:50.217Z,0
2018-03-20T04:31:59.757Z,0
2018-03-20T04:33:09.616Z,0
2018-03-20T04:34:19.692Z,0
2018-03-20T04:35:29.812Z,0
2018-03-20T04:36:39.867Z,0
2018-03-20T04:37:49.946Z,0
2018-03-20T04:38:59.758Z,0
2018-03-20T04:40:09.837Z,0
2018-03-20T04:41:19.893Z,0
2018-03-20T04:42:29.940Z,0
2018-03-20T04:43:40.044Z,0
2018-03-20T04:44:50.138Z,0
2018-03-20T04:46:00.198Z,0
2018-03-20T04:47:10.299Z,0
2018-03-20T04:48:20.090Z,0
2018-03-20T04:49:30.158Z,0
2018-03-20T04:50:39.952Z,0
2018-03-20T04:51:50.024Z,0
2018-03-20T04:53:00.072Z,0
2018-03-20T04:54:10.122Z,0
2018-03-20T04:55:20.252Z,0
2018-03-20T04:56:30.305Z,0
2018-03-20T04:57:40.349Z,0
2018-03-20T04:58:50.429Z,0
2018-03-20T05:00:00.529Z,0
2018-03-20T05:01:10.359Z,0
2018-03-20T05:02:19.889Z,0
2018-03-20T05:03:29.982Z,0
2018-03-20T05:04:40.061Z,0
2018-03-20T05:05:50.112Z,0
2018-03-20T05:07:00.170Z,0
2018-03-20T05:08:09.992Z,0
2018-03-20T05:09:20.045Z,0
2018-03-20T05:10:30.108Z,0
2018-03-20T05:11:39.909Z,0
2018-03-20T05:12:50.058Z,0
2018-03-20T05:14:00.101Z,0
2018-03-20T05:15:10.163Z,0
2018-03-20T05:16:20.213Z,0
2018-03-20T05:17:30.276Z,0
2018-03-20T05:18:40.386Z,0
2018-03-20T05:19:50.444Z,5
2018-03-20T05:21:00.486Z,5
2018-03-20T05:22:10.561Z,5
2018-03-20T05:23:20.635Z,5
2018-03-20T05:24:30.700Z,5
2018-03-20T05:25:40.774Z,5
2018-03-20T05:26:50.845Z,5
2018-03-20T05:28:00.379Z,5
2018-03-20T05:29:10.437Z,5
2018-03-20T05:30:20.558Z,5
2018-03-20T05:31:30.613Z,5
2018-03-20T05:32:40.418Z,5
2018-03-20T05:33:50.224Z,5
2018-03-20T05:35:00.287Z,5
2018-03-20T05:36:10.346Z,5
2018-03-20T05:37:20.145Z,5
2018-03-20T05:38:30.335Z,10
2018-03-20T05:39:40.402Z,10
2018-03-20T05:40:50.216Z,10
2018-03-20T05:42:00.231Z,10
2018-03-20T05:43:10.280Z,10
2018-03-20T05:44:20.341Z,10
2018-03-20T05:45:30.398Z,10
2018-03-20T05:46:40.192Z,10
2018-03-20T05:47:50.298Z,10
2018-03-20T05:49:00.379Z,10
2018-03-20T05:50:10.431Z,10
2018-03-20T05:51:20.599Z,15
2018-03-20T05:52:30.387Z,15
2018-03-20T05:53:40.452Z,15
2018-03-20T05:54:50.567Z,15
2018-03-20T05:56:00.643Z,15
2018-03-20T05:57:10.178Z,15
2018-03-20T05:58:20.243Z,20
2018-03-20T05:59:30.054Z,20
2018-03-20T06:00:39.591Z,20
2018-03-20T06:01:49.130Z,20
2018-03-20T06:02:59.241Z,20
2018-03-20T06:04:09.308Z,25
2018-03-20T06:05:19.117Z,25
2018-03-20T06:06:29.182Z,25
2018-03-20T06:07:39.246Z,25
2018-03-20T06:08:49.314Z,25
2018-03-20T06:09:59.377Z,25
2018-03-20T06:11:09.158Z,25
2018-03-20T06:12:18.953Z,25
2018-03-20T06:13:29.010Z,25
2018-03-20T06:14:39.063Z,30
2018-03-20T06:15:49.120Z,30
2018-03-20T06:16:58.906Z,30
2018-03-20T06:18:08.748Z,30
2018-03-20T06:19:18.819Z,35
2018-03-20T06:20:28.626Z,35
2018-03-20T06:21:38.153Z,35
2018-03-20T06:22:47.971Z,40
2018-03-20T06:23:58.031Z,40
2018-03-20T06:25:07.849Z,40
2018-03-20T06:26:17.920Z,40
2018-03-20T06:27:27.984Z,45
2018-03-20T06:28:38.031Z,45
2018-03-20T06:29:48.091Z,45
2018-03-20T06:30:58.169Z,45
2018-03-20T06:32:08.233Z,45
2018-03-20T06:33:18.289Z,45
2018-03-20T06:34:28.106Z,50
2018-03-20T06:35:38.168Z,55
2018-03-20T06:36:47.945Z,55
2018-03-20T06:37:58.054Z,55
2018-03-20T06:39:08.129Z,60
2018-03-20T06:40:17.930Z,60
2018-03-20T06:41:27.997Z,65
2018-03-20T06:42:37.806Z,70
2018-03-20T06:43:47.856Z,70
2018-03-20T06:44:57.914Z,75
2018-03-20T06:46:07.715Z,75
2018-03-20T06:47:17.503Z,75
2018-03-20T06:48:27.552Z,75
2018-03-20T06:49:37.625Z,80
2018-03-20T06:50:47.155Z,85
2018-03-20T06:51:56.964Z,85
2018-03-20T06:53:07.042Z,85
2018-03-20T06:54:16.848Z,80
2018-03-20T06:55:26.918Z,80
2018-03-20T06:56:36.979Z,75
2018-03-20T06:57:47.049Z,75
2018-03-20T06:58:57.109Z,75
2018-03-20T07:00:06.950Z,75
2018-03-20T07:01:16.492Z,75
2018-03-20T07:02:26.544Z,75
2018-03-20T07:03:35.826Z,75
2018-03-20T07:04:45.893Z,75
2018-03-20T07:05:55.976Z,70
2018-03-20T07:07:06.050Z,70
2018-03-20T07:08:15.854Z,70
2018-03-20T07:09:25.904Z,70
2018-03-20T07:10:36.011Z,80
2018-03-20T07:11:45.555Z,80
2018-03-20T07:12:55.633Z,80
2018-03-20T07:14:05.432Z,85
2018-03-20T07:15:14.438Z,85
2018-03-20T07:16:24.503Z,85
2018-03-20T07:17:34.577Z,90
2018-03-20T07:18:44.366Z,90
2018-03-20T07:19:54.418Z,95
2018-03-20T07:21:04.493Z,95
2018-03-20T07:22:14.091Z,90
2018-03-20T07:23:24.164Z,95
2018-03-20T07:24:33.968Z,95
2018-03-20T07:25:44.041Z,90
2018-03-20T07:26:54.101Z,85
2018-03-20T07:28:04.238Z,85
2018-03-20T07:29:14.038Z,90
2018-03-20T07:30:23.831Z,85
2018-03-20T07:31:33.638Z,85
2018-03-20T07:32:43.166Z,90
2018-03-20T07:33:53.037Z,95
2018-03-20T07:35:02.573Z,95
2018-03-20T07:36:12.643Z,95
2018-03-20T07:37:22.174Z,100
2018-03-20T07:38:31.979Z,100
2018-03-20T07:39:41.780Z,105
2018-03-20T07:40:51.595Z,105
2018-03-20T07:42:01.116Z,105
2018-03-20T07:43:11.188Z,105
2018-03-20T07:44:20.990Z,105
2018-03-20T07:45:31.095Z,110
2018-03-20T07:46:41.171Z,110
2018-03-20T07:47:51.214Z,115
2018-03-20T07:49:01.003Z,115
2018-03-20T07:50:10.806Z,115
2018-03-20T07:51:20.863Z,120
2018-03-20T07:52:30.732Z,115
2018-03-20T07:53:40.797Z,115
2018-03-20T07:54:50.319Z,120
2018-03-20T07:56:00.383Z,120
2018-03-20T07:57:09.151Z,115
2018-03-20T07:58:18.952Z,115
2018-03-20T07:59:28.756Z,115
2018-03-20T08:00:38.563Z,110
2018-03-20T08:01:48.486Z,110
2018-03-20T08:02:58.347Z,105
2018-03-20T08:04:08.428Z,105
2018-03-20T08:05:18.495Z,105
2018-03-20T08:06:28.051Z,105
2018-03-20T08:07:37.575Z,105
2018-03-20T08:08:47.380Z,100
2018-03-20T08:09:57.190Z,100
2018-03-20T08:11:06.740Z,100
2018-03-20T08:12:16.554Z,95
2018-03-20T08:13:26.626Z,95
2018-03-20T08:14:36.477Z,90
2018-03-20T08:15:46.760Z,90
2018-03-20T08:16:56.588Z,85
2018-03-20T08:18:06.413Z,85
2018-03-20T08:19:16.510Z,80
2018-03-20T08:20:26.566Z,80
2018-03-20T08:21:35.843Z,80
2018-03-20T08:22:45.636Z,75
2018-03-20T08:23:55.437Z,75
2018-03-20T08:25:04.975Z,75
2018-03-20T08:26:15.032Z,75
2018-03-20T08:27:24.854Z,75
2018-03-20T08:28:34.920Z,75
2018-03-20T08:29:44.727Z,75
2018-03-20T08:30:54.814Z,75
2018-03-20T08:32:04.416Z,80
2018-03-20T08:33:14.477Z,80
2018-03-20T08:34:24.489Z,80
2018-03-20T08:35:34.575Z,80
2018-03-20T08:36:44.879Z,80
2018-03-20T08:37:55.008Z,85
2018-03-20T08:39:05.098Z,85
2018-03-20T08:40:15.153Z,90
2018-03-20T08:41:25.236Z,90
2018-03-20T08:42:35.316Z,90
2018-03-20T08:43:45.217Z,90
2018-03-20T08:44:55.305Z,95
2018-03-20T08:46:04.843Z,95
2018-03-20T08:47:14.392Z,95
2018-03-20T08:48:23.961Z,95
2018-03-20T08:49:34.039Z,95
2018-03-20T08:50:44.101Z,100
2018-03-20T08:51:54.184Z,100
2018-03-20T08:53:03.977Z,100
2018-03-20T08:54:13.769Z,100
2018-03-20T08:55:23.332Z,100
2018-03-20T08:56:32.902Z,95
2018-03-20T08:57:43.009Z,95
2018-03-20T08:58:53.145Z,95
2018-03-20T09:00:02.673Z,95
2018-03-20T09:01:12.938Z,95
2018-03-20T09:02:22.752Z,100
2018-03-20T09:03:32.353Z,100
2018-03-20T09:04:41.600Z,100
2018-03-20T09:05:51.150Z,95
2018-03-20T09:07:01.058Z,100
2018-03-20T09:08:10.611Z,100
2018-03-20T09:09:20.668Z,105
2018-03-20T09:10:30.466Z,110
2018-03-20T09:11:40.543Z,105
2018-03-20T09:12:50.345Z,100
2018-03-20T09:14:00.200Z,95
2018-03-20T09:15:10.275Z,95
2018-03-20T09:16:20.390Z,105
2018-03-20T09:17:30.459Z,115
2018-03-20T09:18:40.060Z,115
2018-03-20T09:19:50.155Z,115
2018-03-20T09:20:59.949Z,105
2018-03-20T09:22:09.945Z,110
2018-03-20T09:23:20.013Z,110
2018-03-20T09:24:30.270Z,110
2018-03-20T09:25:40.386Z,110
2018-03-20T09:26:50.469Z,105
2018-03-20T09:28:00.284Z,105
2018-03-20T09:29:10.349Z,100
2018-03-20T09:30:20.226Z,105
2018-03-20T09:31:30.026Z,105
2018-03-20T09:32:40.125Z,115
2018-03-20T09:33:49.944Z,120
2018-03-20T09:35:00.012Z,115
2018-03-20T09:36:09.860Z,120
2018-03-20T09:37:19.924Z,130
2018-03-20T09:38:29.450Z,120
2018-03-20T09:39:39.248Z,110
2018-03-20T09:40:48.792Z,105
2018-03-20T09:41:58.616Z,110
2018-03-20T09:43:08.410Z,95
2018-03-20T09:44:18.209Z,105
2018-03-20T09:45:28.005Z,115
2018-03-20T09:46:37.800Z,115
2018-03-20T09:47:47.760Z,115
2018-03-20T09:48:57.855Z,125
2018-03-20T09:50:07.628Z,110
2018-03-20T09:51:17.695Z,110
2018-03-20T09:52:27.748Z,110
2018-03-20T09:53:37.869Z,100
2018-03-20T09:54:47.663Z,90
2018-03-20T09:55:57.476Z,95
2018-03-20T09:57:06.750Z,100
2018-03-20T09:58:16.541Z,100
2018-03-20T09:59:25.871Z,100
2018-03-20T10:00:35.665Z,100
2018-03-20T10:01:45.222Z,115
2018-03-20T10:02:55.302Z,125
2018-03-20T10:04:05.361Z,125
2018-03-20T10:05:14.881Z,120
2018-03-20T10:06:24.961Z,120
2018-03-20T10:07:34.493Z,130
2018-03-20T10:08:44.551Z,145
2018-03-20T10:09:54.673Z,160
2018-03-20T10:11:04.470Z,165
2018-03-20T10:12:14.541Z,155
2018-03-20T10:13:24.593Z,145
2018-03-20T10:14:34.154Z,130
2018-03-20T10:15:43.742Z,130
2018-03-20T10:16:53.593Z,135
2018-03-20T10:18:03.661Z,135
2018-03-20T10:19:13.722Z,140
2018-03-20T10:20:23.804Z,135
2018-03-20T10:21:33.856Z,125
2018-03-20T10:22:43.169Z,110
2018-03-20T10:23:52.695Z,105
2018-03-20T10:25:02.576Z,100
2018-03-20T10:26:12.151Z,95
2018-03-20T10:27:21.684Z,90
2018-03-20T10:28:31.539Z,80
2018-03-20T10:29:41.196Z,80
2018-03-20T10:30:50.725Z,85
2018-03-20T10:32:00.795Z,85
2018-03-20T10:33:10.323Z,85
2018-03-20T10:34:20.147Z,80
2018-03-20T10:35:30.126Z,80
2018-03-20T10:36:39.933Z,80
2018-03-20T10:37:49.736Z,80
2018-03-20T10:38:59.824Z,80
2018-03-20T10:40:09.938Z,80
2018-03-20T10:41:19.204Z,80
2018-03-20T10:42:29.257Z,80
2018-03-20T10:43:39.060Z,80
2018-03-20T10:44:48.331Z,85
2018-03-20T10:45:58.118Z,95
2018-03-20T10:47:07.754Z,100
2018-03-20T10:48:17.569Z,105
2018-03-20T10:49:27.632Z,115
2018-03-20T10:50:37.445Z,120
2018-03-20T10:51:47.247Z,125
2018-03-20T10:52:57.296Z,135
2018-03-20T10:54:07.368Z,145
2018-03-20T10:55:17.210Z,150
2018-03-20T10:56:26.992Z,150
2018-03-20T10:57:36.780Z,150
2018-03-20T10:58:46.321Z,150
2018-03-20T10:59:55.864Z,155
2018-03-20T11:01:05.655Z,145
2018-03-20T11:02:15.202Z,150
2018-03-20T11:03:25.269Z,170
2018-03-20T11:04:35.347Z,180
2018-03-20T11:05:45.156Z,185
2018-03-20T11:06:55.219Z,190
2018-03-20T11:08:05.281Z,205
2018-03-20T11:09:14.811Z,225
2018-03-20T11:10:24.910Z,220
2018-03-20T11:11:34.462Z,210
2018-03-20T11:12:44.247Z,210
2018-03-20T11:13:54.364Z,210
2018-03-20T11:15:04.225Z,225
2018-03-20T11:16:14.019Z,220
2018-03-20T11:17:24.090Z,220
2018-03-20T11:18:33.640Z,215
2018-03-20T11:19:43.457Z,215
2018-03-20T11:20:53.272Z,210
2018-03-20T11:22:03.078Z,205
2018-03-20T11:23:12.882Z,205
2018-03-20T11:24:22.687Z,200
2018-03-20T11:25:32.751Z,195
2018-03-20T11:26:42.333Z,200
2018-03-20T11:27:52.150Z,205
2018-03-20T11:29:01.679Z,190
2018-03-20T11:30:11.747Z,170
2018-03-20T11:31:21.544Z,160
2018-03-20T11:32:31.131Z,165
2018-03-20T11:33:41.234Z,165
2018-03-20T11:34:51.299Z,165
2018-03-20T11:36:01.097Z,155
2018-03-20T11:37:10.900Z,145
2018-03-20T11:38:21.029Z,145
2018-03-20T11:39:31.085Z,140
2018-03-20T11:40:41.158Z,130
2018-03-20T11:41:51.213Z,125
2018-03-20T11:43:01.268Z,125
2018-03-20T11:44:11.384Z,135
2018-03-20T11:45:21.456Z,140
2018-03-20T11:46:31.519Z,150
2018-03-20T11:47:41.577Z,165
2018-03-20T11:48:51.649Z,170
2018-03-20T11:50:01.793Z,170
2018-03-20T11:51:11.874Z,165
2018-03-20T11:52:21.669Z,180
2018-03-20T11:53:31.748Z,190
2018-03-20T11:54:41.535Z,195
2018-03-20T11:55:51.397Z,190
2018-03-20T11:57:01.191Z,185
2018-03-20T11:58:11.277Z,180
2018-03-20T11:59:21.349Z,180
2018-03-20T12:00:31.430Z,180
2018-03-20T12:01:41.481Z,180
2018-03-20T12:02:51.012Z,175
2018-03-20T12:04:01.084Z,175
2018-03-20T12:05:10.882Z,170
2018-03-20T12:06:20.953Z,170
2018-03-20T12:07:31.074Z,170
2018-03-20T12:08:41.132Z,185
2018-03-20T12:09:50.936Z,185
2018-03-20T12:11:00.740Z,190
2018-03-20T12:12:10.545Z,190
2018-03-20T12:13:20.686Z,195
2018-03-20T12:14:30.779Z,190
2018-03-20T12:15:40.850Z,185
2018-03-20T12:16:50.948Z,185
2018-03-20T12:18:00.748Z,185
2018-03-20T12:19:10.818Z,185
2018-03-20T12:20:20.894Z,185
2018-03-20T12:21:30.688Z,185
2018-03-20T12:22:40.757Z,180
2018-03-20T12:23:50.807Z,185
2018-03-20T12:25:00.939Z,180
2018-03-20T12:26:11.034Z,185
2018-03-20T12:27:20.836Z,180
2018-03-20T12:28:30.651Z,185
2018-03-20T12:29:40.705Z,185
2018-03-20T12:30:50.248Z,180
2018-03-20T12:32:00.198Z,170
2018-03-20T12:33:10.013Z,150
2018-03-20T12:34:19.541Z,145
2018-03-20T12:35:29.623Z,135
2018-03-20T12:36:39.698Z,135
2018-03-20T12:37:49.586Z,140
2018-03-20T12:38:59.112Z,150
2018-03-20T12:40:09.163Z,160
2018-03-20T12:41:18.693Z,160
2018-03-20T12:42:28.536Z,160
2018-03-20T12:43:38.350Z,160
2018-03-20T12:44:47.626Z,150
2018-03-20T12:45:57.153Z,145
2018-03-20T12:47:06.699Z,130
2018-03-20T12:48:16.545Z,120
2018-03-20T12:49:26.618Z,115
2018-03-20T12:50:36.425Z,115
2018-03-20T12:51:46.230Z,115
2018-03-20T12:52:56.302Z,115
2018-03-20T12:54:05.947Z,120
2018-03-20T12:55:15.750Z,115
2018-03-20T12:56:25.833Z,110
2018-03-20T12:57:34.849Z,110
2018-03-20T12:58:44.648Z,115
2018-03-20T12:59:54.528Z,115
2018-03-20T13:01:04.341Z,125
2018-03-20T13:02:13.862Z,140
2018-03-20T13:03:23.964Z,145
2018-03-20T13:04:33.517Z,155
2018-03-20T13:05:43.414Z,165
2018-03-20T13:06:53.228Z,175
2018-03-20T13:08:03.470Z,180
2018-03-20T13:09:13.293Z,185
2018-03-20T13:10:22.831Z,190
2018-03-20T13:11:32.705Z,185
2018-03-20T13:12:42.770Z,185
2018-03-20T13:13:53.053Z,180
2018-03-20T13:15:03.130Z,180
2018-03-20T13:16:13.203Z,180
2018-03-20T13:17:23.316Z,180
2018-03-20T13:18:33.386Z,175
2018-03-20T13:19:42.944Z,175
2018-03-20T13:20:53.017Z,175
2018-03-20T13:22:02.817Z,175
2018-03-20T13:23:13.077Z,175
2018-03-20T13:24:23.212Z,170
2018-03-20T13:25:33.267Z,165
2018-03-20T13:26:43.341Z,165
2018-03-20T13:27:53.418Z,165
2018-03-20T13:29:03.526Z,165
2018-03-20T13:30:13.318Z,165
2018-03-20T13:31:23.392Z,165
2018-03-20T13:32:32.917Z,165
2018-03-20T13:33:42.211Z,160
2018-03-20T13:34:52.313Z,160
2018-03-20T13:36:02.376Z,160
2018-03-20T13:37:12.438Z,165
2018-03-20T13:38:22.495Z,165
2018-03-20T13:39:32.579Z,165
2018-03-20T13:40:42.659Z,165
2018-03-20T13:41:52.720Z,165
2018-03-20T13:43:02.791Z,165
2018-03-20T13:44:12.873Z,165
2018-03-20T13:45:22.924Z,170
2018-03-20T13:46:32.773Z,165
2018-03-20T13:47:42.832Z,165
2018-03-20T13:48:52.889Z,165
2018-03-20T13:50:02.938Z,170
2018-03-20T13:51:13.016Z,165
2018-03-20T13:52:23.156Z,165
2018-03-20T13:53:32.950Z,165
2018-03-20T13:54:42.751Z,175
2018-03-20T13:55:52.819Z,175
2018-03-20T13:57:02.885Z,175
2018-03-20T13:58:12.945Z,175
2018-03-20T13:59:23.001Z,175
2018-03-20T14:00:32.805Z,175
2018-03-20T14:01:42.882Z,170
2018-03-20T14:02:52.938Z,170
2018-03-20T14:04:02.746Z,165
2018-03-20T14:05:12.285Z,165
2018-03-20T14:06:22.396Z,165
2018-03-20T14:07:32.187Z,160
2018-03-20T14:08:42.305Z,160
2018-03-20T14:09:52.388Z,160
2018-03-20T14:11:02.463Z,160
2018-03-20T14:12:12.272Z,160
2018-03-20T14:13:22.090Z,160
2018-03-20T14:14:31.932Z,160
2018-03-20T14:15:41.533Z,160
2018-03-20T14:16:51.084Z,160
2018-03-20T14:18:00.615Z,165
2018-03-20T14:19:10.672Z,160
2018-03-20T14:20:19.951Z,155
2018-03-20T14:21:29.811Z,150
2018-03-20T14:22:39.624Z,150
2018-03-20T14:23:49.467Z,150
2018-03-20T14:24:59.586Z,145
2018-03-20T14:26:09.490Z,145
2018-03-20T14:27:18.816Z,145
2018-03-20T14:28:28.622Z,140
2018-03-20T14:29:38.444Z,140
2018-03-20T14:30:48.557Z,140
2018-03-20T14:31:58.367Z,135
2018-03-20T14:33:08.231Z,135
2018-03-20T14:34:18.297Z,135
2018-03-20T14:35:28.098Z,130
2018-03-20T14:36:38.038Z,130
2018-03-20T14:37:47.841Z,130
2018-03-20T14:38:57.922Z,125
2018-03-20T14:40:07.458Z,125
2018-03-20T14:41:17.556Z,125
2018-03-20T14:42:26.835Z,125
2018-03-20T14:43:36.421Z,120
2018-03-20T14:44:46.571Z,120
2018-03-20T14:45:56.117Z,120
2018-03-20T14:47:05.664Z,120
2018-03-20T14:48:15.198Z,120
2018-03-20T14:49:25.033Z,120
2018-03-20T14:50:34.303Z,120
2018-03-20T14:51:44.377Z,115
2018-03-20T14:52:53.639Z,115
2018-03-20T14:54:03.450Z,115
2018-03-20T14:55:12.982Z,115
2018-03-20T14:56:22.844Z,115
2018-03-20T14:57:32.918Z,110
2018-03-20T14:58:42.744Z,115
2018-03-20T14:59:52.794Z,115
2018-03-20T15:01:02.886Z,110
2018-03-20T15:02:12.970Z,110
2018-03-20T15:03:22.811Z,110
2018-03-20T15:04:32.891Z,105
2018-03-20T15:05:42.945Z,105
2018-03-20T15:06:52.742Z,105
2018-03-20T15:08:02.312Z,105
2018-03-20T15:09:12.388Z,100
2018-03-20T15:10:22.226Z,100
2018-03-20T15:11:32.041Z,100
2018-03-20T15:12:41.865Z,100
2018-03-20T15:13:51.999Z,95
2018-03-20T15:15:02.064Z,95
2018-03-20T15:16:12.008Z,95
2018-03-20T15:17:21.820Z,90
2018-03-20T15:18:31.402Z,90
2018-03-20T15:19:41.466Z,90
2018-03-20T15:20:51.006Z,85
2018-03-20T15:22:01.069Z,85
2018-03-20T15:23:11.144Z,85
2018-03-20T15:24:21.214Z,85
2018-03-20T15:25:30.775Z,85
2018-03-20T15:26:40.625Z,80
2018-03-20T15:27:50.746Z,80
2018-03-20T15:29:00.850Z,80
2018-03-20T15:30:10.936Z,80
2018-03-20T15:31:20.732Z,85
2018-03-20T15:32:30.008Z,80
2018-03-20T15:33:39.815Z,80
2018-03-20T15:34:49.882Z,80
2018-03-20T15:35:59.685Z,80
2018-03-20T15:37:09.986Z,75
2018-03-20T15:38:20.076Z,75
2018-03-20T15:39:29.675Z,70
2018-03-20T15:40:39.460Z,70
2018-03-20T15:41:49.268Z,70
2018-03-20T15:42:59.053Z,70
2018-03-20T15:44:08.576Z,65
2018-03-20T15:45:18.370Z,60
2018-03-20T15:46:28.449Z,60
2018-03-20T15:47:38.512Z,60
2018-03-20T15:48:48.564Z,55
2018-03-20T15:49:58.628Z,55
2018-03-20T15:51:08.411Z,55
2018-03-20T15:52:18.220Z,55
2018-03-20T15:53:28.025Z,55
2018-03-20T15:54:37.554Z,55
2018-03-20T15:55:47.642Z,55
2018-03-20T15:56:57.502Z,50
2018-03-20T15:58:07.570Z,50
2018-03-20T15:59:17.626Z,50
2018-03-20T16:00:27.436Z,50
2018-03-20T16:01:37.385Z,45
2018-03-20T16:02:46.991Z,45
2018-03-20T16:03:56.942Z,45
2018-03-20T16:05:07.007Z,45
2018-03-20T16:06:16.813Z,40
2018-03-20T16:07:26.611Z,40
2018-03-20T16:08:36.462Z,40
2018-03-20T16:09:46.297Z,35
2018-03-20T16:10:56.095Z,40
2018-03-20T16:12:05.650Z,40
2018-03-20T16:13:15.243Z,35
2018-03-20T16:14:25.166Z,35
2018-03-20T16:15:35.325Z,35
2018-03-20T16:16:45.529Z,35
2018-03-20T16:17:56.421Z,30
2018-03-20T16:19:06.796Z,30
2018-03-20T16:20:17.890Z,30
2018-03-20T16:21:30.224Z,30
2018-03-20T16:22:42.707Z,30
2018-03-20T16:23:54.098Z,30
2018-03-20T16:25:05.816Z,30
2018-03-20T16:26:17.019Z,30
2018-03-20T16:27:27.364Z,30
2018-03-20T16:28:37.822Z,30
2018-03-20T16:29:47.996Z,30
2018-03-20T16:30:58.079Z,30
2018-03-20T16:32:08.198Z,25
2018-03-20T16:33:18.294Z,25
2018-03-20T16:34:28.126Z,25
2018-03-20T16:35:38.272Z,20
2018-03-20T16:36:48.349Z,20
2018-03-20T16:37:58.458Z,20
2018-03-20T16:39:08.801Z,15
2018-03-20T16:40:18.879Z,15
2018-03-20T16:41:28.973Z,15
2018-03-20T16:42:39.297Z,15
2018-03-20T16:43:49.423Z,15
2018-03-20T16:44:59.523Z,10
2018-03-20T16:46:09.621Z,10
2018-03-20T16:47:19.731Z,10
2018-03-20T16:48:29.833Z,10
2018-03-20T16:49:40.150Z,10
2018-03-20T16:50:50.249Z,10
2018-03-20T16:52:00.326Z,10
2018-03-20T16:53:10.398Z,10
2018-03-20T16:54:20.481Z,10
2018-03-20T16:55:30.651Z,5
2018-03-20T16:56:40.765Z,5
2018-03-20T16:57:50.838Z,5
2018-03-20T16:59:00.698Z,5
2018-03-20T17:00:10.816Z,5
2018-03-20T17:01:20.790Z,5
2018-03-20T17:02:40.129Z,5
2018-03-20T17:03:59.517Z,0
2018-03-20T17:05:09.583Z,0